createdAt,value
2022-08-19T00:00:16.056Z,99736.47
2022-08-19T00:03:22.169Z,99744.22
2022-08-19T00:06:32.453Z,99739.91
2022-08-19T00:09:38.608Z,99733.44
2022-08-19T00:12:48.169Z,99739.09
2022-08-19T00:16:00.634Z,99729.41
2022-08-19T00:19:06.939Z,99728.53
2022-08-19T00:22:13.076Z,99724.72
2022-08-19T00:25:30.039Z,99721.72
2022-08-19T00:28:49.614Z,99706.94
2022-08-19T00:31:56.621Z,99700.19
2022-08-19T00:35:03.584Z,99697.47
2022-08-19T00:38:09.283Z,99686.09
2022-08-19T00:41:17.204Z,99689.84
2022-08-19T00:44:27.133Z,99675.28
2022-08-19T00:47:33.295Z,99679.00
2022-08-19T00:50:51.881Z,99679.50
2022-08-19T00:54:10.963Z,99673.59
2022-08-19T00:57:21.718Z,99673.59
2022-08-19T01:00:29.802Z,99667.63
2022-08-19T01:03:58.121Z,99665.22
2022-08-19T01:07:04.606Z,99660.06
2022-08-19T01:10:14.097Z,99654.41
2022-08-19T01:13:23.552Z,99654.16
2022-08-19T01:16:30.952Z,99656.03
2022-08-19T01:19:43.932Z,99661.38
2022-08-19T01:22:58.411Z,99651.41
2022-08-19T01:26:04.267Z,99649.78
2022-08-19T01:29:10.444Z,99648.44
2022-08-19T01:32:33.178Z,99651.56
2022-08-19T01:35:47.165Z,99649.13
2022-08-19T01:38:54.160Z,99651.78
2022-08-19T01:41:59.802Z,99645.88
2022-08-19T01:45:09.159Z,99633.78
2022-08-19T01:48:15.976Z,99639.31
2022-08-19T01:51:22.307Z,99650.03
2022-08-19T01:54:28.532Z,99652.38
2022-08-19T01:57:34.753Z,99646.47
2022-08-19T02:00:40.832Z,99644.56
2022-08-19T02:03:47.657Z,99646.12
2022-08-19T02:06:53.879Z,99659.78
2022-08-19T02:10:00.253Z,99667.78
2022-08-19T02:13:09.737Z,99662.62
2022-08-19T02:16:18.326Z,99653.44
2022-08-19T02:19:24.286Z,99652.34
2022-08-19T02:22:30.467Z,99653.41
2022-08-19T02:25:36.080Z,99655.28
2022-08-19T02:28:44.330Z,99663.22
2022-08-19T02:31:50.259Z,99655.12
2022-08-19T02:34:56.329Z,99653.56
2022-08-19T02:38:22.396Z,99658.34
2022-08-19T02:41:31.352Z,99659.16
2022-08-19T02:44:37.053Z,99653.19
2022-08-19T02:47:43.383Z,99659.88
2022-08-19T02:50:53.640Z,99664.66
2022-08-19T02:54:01.659Z,99674.00
2022-08-19T02:57:07.983Z,99678.31
2022-08-19T03:00:15.036Z,99682.84
2022-08-19T03:03:21.507Z,99665.63
2022-08-19T03:06:27.320Z,99655.44
2022-08-19T03:09:33.272Z,99672.81
2022-08-19T03:12:40.575Z,99678.31
2022-08-19T03:15:48.580Z,99677.50
2022-08-19T03:18:55.898Z,99669.97
2022-08-19T03:22:02.405Z,99674.78
2022-08-19T03:25:09.085Z,99685.66
2022-08-19T03:28:16.893Z,99680.31
2022-08-19T03:31:43.318Z,99671.28
2022-08-19T03:34:55.449Z,99671.53
2022-08-19T03:38:01.727Z,99677.16
2022-08-19T03:41:10.075Z,99669.62
2022-08-19T03:44:18.416Z,99664.75
2022-08-19T03:47:24.850Z,99667.44
2022-08-19T03:50:31.358Z,99671.22
2022-08-19T03:53:37.481Z,99670.66
2022-08-19T03:56:44.829Z,99670.97
2022-08-19T03:59:51.124Z,99664.81
2022-08-19T04:02:58.718Z,99656.84
2022-08-19T04:06:16.300Z,99657.41
2022-08-19T04:09:22.499Z,99663.75
2022-08-19T04:12:28.815Z,99657.66
2022-08-19T04:15:41.206Z,99674.84
2022-08-19T04:18:47.713Z,99664.94
2022-08-19T04:21:55.464Z,99663.97
2022-08-19T04:25:01.308Z,99666.13
2022-08-19T04:28:07.601Z,99673.41
2022-08-19T04:31:18.821Z,99663.59
2022-08-19T04:34:27.622Z,99671.38
2022-08-19T04:37:35.753Z,99679.47
2022-08-19T04:41:03.147Z,99679.78
2022-08-19T04:44:09.818Z,99679.06
2022-08-19T04:47:15.803Z,99678.38
2022-08-19T04:50:44.939Z,99688.66
2022-08-19T04:53:52.002Z,99688.50
2022-08-19T04:56:58.099Z,99680.84
2022-08-19T05:00:04.217Z,99678.53
2022-08-19T05:03:10.401Z,99678.75
2022-08-19T05:06:17.368Z,99683.81
2022-08-19T05:09:23.398Z,99675.09
2022-08-19T05:12:30.520Z,99680.91
2022-08-19T05:15:37.409Z,99685.53
2022-08-19T05:19:03.373Z,99679.44
2022-08-19T05:22:28.651Z,99676.25
2022-08-19T05:25:35.462Z,99672.50
2022-08-19T05:28:41.532Z,99671.94
2022-08-19T05:31:49.034Z,99671.41
2022-08-19T05:34:55.604Z,99674.84
2022-08-19T05:38:01.722Z,99669.06
2022-08-19T05:41:11.162Z,99680.84
2022-08-19T05:44:19.312Z,99669.66
2022-08-19T05:47:25.397Z,99667.06
2022-08-19T05:50:32.095Z,99660.47
2022-08-19T05:53:43.028Z,99654.53
2022-08-19T05:56:49.156Z,99654.03
2022-08-19T05:59:58.690Z,99665.97
2022-08-19T06:03:09.704Z,99681.34
2022-08-19T06:06:23.912Z,99701.88
2022-08-19T06:09:29.853Z,99717.63
2022-08-19T06:12:37.356Z,99727.78
2022-08-19T06:15:45.990Z,99729.50
2022-08-19T06:18:56.171Z,99719.97
2022-08-19T06:22:03.305Z,99716.06
2022-08-19T06:25:11.222Z,99725.13
2022-08-19T06:28:17.469Z,99726.22
2022-08-19T06:31:33.212Z,99722.81
2022-08-19T06:34:42.993Z,99733.34
2022-08-19T06:37:49.091Z,99737.00
2022-08-19T06:41:17.033Z,99746.81
2022-08-19T06:44:25.832Z,99749.69
2022-08-19T06:47:32.809Z,99745.50
2022-08-19T06:50:39.725Z,99746.06
2022-08-19T06:56:55.308Z,99744.50
2022-08-19T07:00:02.079Z,99756.75
2022-08-19T07:03:13.071Z,99753.00
2022-08-19T07:09:52.279Z,99758.84
2022-08-19T07:13:19.496Z,99753.91
2022-08-19T07:16:28.843Z,99759.91
2022-08-19T07:19:35.616Z,99760.94
2022-08-19T07:22:41.755Z,99751.69
2022-08-19T07:25:53.090Z,99753.31
2022-08-19T07:29:09.907Z,99763.75
2022-08-19T07:32:15.930Z,99764.22
2022-08-19T07:35:30.066Z,99762.16
2022-08-19T07:38:37.005Z,99756.09
2022-08-19T07:41:49.312Z,99752.59
2022-08-19T07:44:55.887Z,99758.66
2022-08-19T07:48:24.943Z,99748.06
2022-08-19T07:51:36.516Z,99752.47
2022-08-19T07:54:58.882Z,99754.38
2022-08-19T07:58:05.452Z,99747.63
2022-08-19T08:01:20.770Z,99754.22
2022-08-19T08:04:49.871Z,99753.66
2022-08-19T08:08:16.062Z,99744.91
2022-08-19T08:11:24.184Z,99738.31
2022-08-19T08:14:36.795Z,99734.81
2022-08-19T08:17:49.837Z,99734.72
2022-08-19T08:21:15.233Z,99736.88
2022-08-19T08:24:22.380Z,99728.88
2022-08-19T08:27:53.727Z,99723.34
2022-08-19T08:31:01.478Z,99727.00
2022-08-19T08:34:07.512Z,99723.19
2022-08-19T08:37:13.601Z,99730.94
2022-08-19T08:40:26.569Z,99725.28
2022-08-19T08:43:45.472Z,99726.72
2022-08-19T08:46:58.806Z,99725.47
2022-08-19T08:50:17.811Z,99730.72
2022-08-19T08:53:31.168Z,99737.09
2022-08-19T08:56:44.579Z,99733.66
2022-08-19T08:59:53.187Z,99736.94
2022-08-19T09:03:01.748Z,99738.66
2022-08-19T09:06:26.833Z,99745.78
2022-08-19T09:09:46.013Z,99740.25
2022-08-19T09:13:02.260Z,99739.72
2022-08-19T09:16:27.953Z,99733.34
2022-08-19T09:19:34.128Z,99725.19
2022-08-19T09:22:40.920Z,99726.13
2022-08-19T09:25:52.956Z,99721.47
2022-08-19T09:28:59.869Z,99718.00
2022-08-19T09:32:06.245Z,99709.09
2022-08-19T09:35:33.558Z,99709.31
2022-08-19T09:39:04.753Z,99717.28
2022-08-19T09:42:30.220Z,99717.56
2022-08-19T09:45:54.716Z,99710.34
2022-08-19T09:49:06.282Z,99702.50
2022-08-19T09:52:13.803Z,99700.72
2022-08-19T09:55:21.397Z,99707.31
2022-08-19T09:58:32.193Z,99701.88
2022-08-19T10:01:38.059Z,99689.41
2022-08-19T10:05:05.850Z,99692.69
2022-08-19T10:08:14.538Z,99678.06
2022-08-19T10:11:28.268Z,99683.56
2022-08-19T10:14:53.104Z,99685.78
2022-08-19T10:18:01.002Z,99684.03
2022-08-19T10:21:11.885Z,99691.47
2022-08-19T10:24:17.920Z,99689.66
2022-08-19T10:27:26.383Z,99689.59
2022-08-19T10:30:38.551Z,99695.91
2022-08-19T10:33:53.358Z,99709.88
2022-08-19T10:37:10.750Z,99714.03
2022-08-19T10:40:18.166Z,99750.19
2022-08-19T10:43:24.934Z,99743.38
2022-08-19T10:46:34.450Z,99745.25
2022-08-19T10:50:03.414Z,99749.47
2022-08-19T10:53:11.638Z,99756.31
2022-08-19T10:56:38.197Z,99751.09
2022-08-19T10:59:45.748Z,99754.34
2022-08-19T11:02:53.456Z,99747.72
2022-08-19T11:06:03.790Z,99756.72
2022-08-19T11:09:10.448Z,99755.66
2022-08-19T11:12:17.653Z,99764.50
2022-08-19T11:15:24.098Z,99761.31
2022-08-19T11:18:30.730Z,99761.69
2022-08-19T11:21:38.776Z,99774.53
2022-08-19T11:24:45.796Z,99764.44
2022-08-19T11:27:52.949Z,99761.38
2022-08-19T11:30:59.651Z,99773.75
2022-08-19T11:34:07.500Z,99767.00
2022-08-19T11:37:13.722Z,99766.66
2022-08-19T11:40:19.949Z,99758.66
2022-08-19T11:43:28.293Z,99771.66
2022-08-19T11:46:34.680Z,99764.69
2022-08-19T11:49:41.244Z,99772.25
2022-08-19T11:52:48.646Z,99768.69
2022-08-19T11:55:57.785Z,99776.88
2022-08-19T11:59:04.265Z,99784.31
2022-08-19T12:02:10.735Z,99790.09
2022-08-19T12:05:17.881Z,99796.34
2022-08-19T12:08:24.438Z,99794.09
2022-08-19T12:11:34.731Z,99795.87
2022-08-19T12:14:42.185Z,99808.34
2022-08-19T12:17:48.343Z,99809.44
2022-08-19T12:20:58.912Z,99822.44
2022-08-19T12:24:07.497Z,99833.47
2022-08-19T12:27:13.733Z,99835.34
2022-08-19T12:30:41.605Z,99842.03
2022-08-19T12:33:48.854Z,99871.06
2022-08-19T12:36:55.015Z,99853.28
2022-08-19T12:40:01.306Z,99843.19
2022-08-19T12:43:14.834Z,99872.56
2022-08-19T12:46:26.049Z,99870.69
2022-08-19T12:49:53.838Z,99855.94
2022-08-19T12:53:04.101Z,99879.81
2022-08-19T12:56:12.992Z,99891.84
2022-08-19T12:59:20.349Z,99896.41
2022-08-19T13:02:26.464Z,99875.19
2022-08-19T13:05:37.736Z,99877.66
2022-08-19T13:08:46.609Z,99901.81
2022-08-19T13:11:52.705Z,99910.25
2022-08-19T13:14:59.606Z,99921.53
2022-08-19T13:18:06.149Z,99910.03
2022-08-19T13:21:15.944Z,99894.56
2022-08-19T13:24:22.078Z,99885.69
2022-08-19T13:27:34.326Z,99884.19
2022-08-19T13:31:07.005Z,99883.69
2022-08-19T13:34:17.035Z,99884.00
2022-08-19T13:37:44.597Z,99858.13
2022-08-19T13:40:52.030Z,99831.41
2022-08-19T13:43:58.774Z,99821.28
2022-08-19T13:47:10.460Z,99822.34
2022-08-19T13:50:18.957Z,99834.94
2022-08-19T13:53:25.220Z,99829.12
2022-08-19T13:56:31.688Z,99827.91
2022-08-19T13:59:37.982Z,99801.78
2022-08-19T14:02:45.188Z,99790.03
2022-08-19T14:05:51.298Z,99804.03
2022-08-19T14:08:57.450Z,99801.22
2022-08-19T14:13:11.259Z,99791.88
2022-08-19T14:16:18.525Z,99795.78
2022-08-19T14:19:24.485Z,99777.06
2022-08-19T14:22:41.261Z,99764.97
2022-08-19T14:25:48.411Z,99761.34
2022-08-19T14:28:54.794Z,99769.81
2022-08-19T14:32:00.815Z,99780.28
2022-08-19T14:35:09.224Z,99794.44
2022-08-19T14:38:18.994Z,99804.66
2022-08-19T14:41:48.021Z,99783.50
2022-08-19T14:44:54.297Z,99759.34
2022-08-19T14:48:02.028Z,99732.78
2022-08-19T14:51:09.682Z,99725.13
2022-08-19T14:54:15.864Z,99712.25
2022-08-19T14:57:21.851Z,99703.09
2022-08-19T15:00:28.908Z,99687.56
2022-08-19T15:03:35.098Z,99726.44
2022-08-19T15:06:41.609Z,99763.19
2022-08-19T15:09:47.689Z,99759.19
2022-08-19T15:12:55.098Z,99761.12
2022-08-19T15:16:02.911Z,99752.38
2022-08-19T15:19:25.152Z,99749.25
2022-08-19T15:22:32.894Z,99747.50
2022-08-19T15:25:40.256Z,99746.22
2022-08-19T15:28:49.212Z,99741.72
2022-08-19T15:31:58.811Z,99763.16
2022-08-19T15:35:09.833Z,99748.09
2022-08-19T15:38:19.132Z,99748.69
2022-08-19T15:41:32.137Z,99744.69
2022-08-19T15:44:41.950Z,99726.09
2022-08-19T15:47:50.578Z,99756.87
2022-08-19T15:50:58.153Z,99751.78
2022-08-19T15:54:08.229Z,99763.94
2022-08-19T15:57:24.134Z,99778.53
2022-08-19T16:00:51.552Z,99768.53
2022-08-19T16:04:40.972Z,99747.81
2022-08-19T16:07:48.973Z,99749.47
2022-08-19T16:10:55.796Z,99740.06
2022-08-19T16:14:03.476Z,99729.53
2022-08-19T16:17:12.672Z,99739.75
2022-08-19T16:20:19.043Z,99723.31
2022-08-19T16:23:27.759Z,99704.19
2022-08-19T16:26:35.574Z,99695.28
2022-08-19T16:29:41.784Z,99706.34
2022-08-19T16:32:47.601Z,99688.31
2022-08-19T16:36:00.154Z,99684.19
2022-08-19T16:39:22.927Z,99676.06
2022-08-19T16:42:29.026Z,99673.87
2022-08-19T16:45:35.001Z,99683.84
2022-08-19T16:48:43.849Z,99699.78
2022-08-19T16:51:50.098Z,99709.19
2022-08-19T16:54:56.376Z,99714.50
2022-08-19T16:58:05.746Z,99687.16
2022-08-19T17:01:13.078Z,99694.63
2022-08-19T17:04:23.417Z,99694.38
2022-08-19T17:07:33.217Z,99699.47
2022-08-19T17:10:45.575Z,99732.09
2022-08-19T17:14:09.488Z,99729.22
2022-08-19T17:17:15.609Z,99710.34
2022-08-19T17:20:22.934Z,99706.34
2022-08-19T17:23:42.372Z,99716.66
2022-08-19T17:26:58.655Z,99711.56
2022-08-19T17:30:07.635Z,99713.19
2022-08-19T17:33:13.825Z,99709.16
2022-08-19T17:36:24.136Z,99704.94
2022-08-19T17:39:30.533Z,99718.69
2022-08-19T17:42:58.119Z,99719.53
2022-08-19T17:46:05.751Z,99722.50
2022-08-19T17:49:12.318Z,99727.63
2022-08-19T17:52:18.503Z,99722.53
2022-08-19T17:55:25.955Z,99720.13
2022-08-19T17:58:31.829Z,99739.81
2022-08-19T18:01:53.916Z,99741.09
2022-08-19T18:05:08.070Z,99735.19
2022-08-19T18:08:14.595Z,99751.34
2022-08-19T18:11:21.031Z,99743.81
2022-08-19T18:14:33.963Z,99742.47
2022-08-19T18:17:41.060Z,99750.53
2022-08-19T18:20:47.236Z,99744.06
2022-08-19T18:23:53.221Z,99748.38
2022-08-19T18:27:22.541Z,99749.94
2022-08-19T18:30:35.608Z,99758.25
2022-08-19T18:33:44.389Z,99771.97
2022-08-19T18:36:53.871Z,99773.25
2022-08-19T18:40:21.199Z,99772.44
2022-08-19T18:43:47.429Z,99777.78
2022-08-19T18:47:15.332Z,99787.47
2022-08-19T18:50:22.621Z,99779.41
2022-08-19T18:53:31.529Z,99803.06
2022-08-19T18:56:40.089Z,99807.62
2022-08-19T18:59:48.737Z,99807.62
2022-08-19T19:02:55.304Z,99814.09
2022-08-19T19:06:02.444Z,99819.72
2022-08-19T19:09:11.370Z,99825.63
2022-08-19T19:12:19.349Z,99825.63
2022-08-19T19:15:25.194Z,99817.06
2022-08-19T19:18:32.489Z,99812.47
2022-08-19T19:21:38.279Z,99802.19
2022-08-19T19:24:47.490Z,99784.22
2022-08-19T19:27:55.725Z,99777.25
2022-08-19T19:31:02.735Z,99806.81
2022-08-19T19:34:29.265Z,99826.72
2022-08-19T19:37:37.039Z,99826.34
2022-08-19T19:40:43.220Z,99832.16
2022-08-19T19:43:59.919Z,99833.50
2022-08-19T19:47:20.276Z,99824.38
2022-08-19T19:50:32.048Z,99819.03
2022-08-19T19:53:38.171Z,99836.25
2022-08-19T19:56:46.378Z,99852.84
2022-08-19T19:59:52.201Z,99868.38
2022-08-19T20:02:58.814Z,99881.25
2022-08-19T20:06:05.413Z,99883.12
2022-08-19T20:09:14.221Z,99892.53
2022-08-19T20:12:23.892Z,99900.34
2022-08-19T20:15:32.082Z,99898.97
2022-08-19T20:18:40.012Z,99909.97
2022-08-19T20:21:50.797Z,99910.75
2022-08-19T20:24:57.805Z,99912.06
2022-08-19T20:28:07.059Z,99905.94
2022-08-19T20:31:13.295Z,99902.47
2022-08-19T20:34:19.439Z,99901.34
2022-08-19T20:37:26.616Z,99905.88
2022-08-19T20:40:34.877Z,99913.06
2022-08-19T20:43:41.323Z,99919.31
2022-08-19T20:46:54.701Z,99938.41
2022-08-19T20:50:17.774Z,99947.03
2022-08-19T20:53:25.469Z,99951.59
2022-08-19T20:56:31.633Z,99963.94
2022-08-19T20:59:39.136Z,99964.25
2022-08-19T21:02:45.694Z,99980.09
2022-08-19T21:05:52.949Z,99984.94
2022-08-19T21:08:58.921Z,100000.50
2022-08-19T21:12:06.790Z,99977.41
2022-08-19T21:15:13.020Z,99973.66
2022-08-19T21:18:21.444Z,99963.47
2022-08-19T21:21:27.722Z,99959.72
2022-08-19T21:24:34.087Z,99944.97
2022-08-19T21:27:39.970Z,99950.09
2022-08-19T21:30:46.870Z,99952.00
2022-08-19T21:33:52.607Z,99950.09
2022-08-19T21:36:59.008Z,99967.19
2022-08-19T21:40:06.223Z,99978.94
2022-08-19T21:43:12.349Z,99980.09
2022-08-19T21:46:18.371Z,99969.41
2022-08-19T21:49:24.971Z,99973.22
2022-08-19T21:52:31.651Z,99962.03
2022-08-19T21:55:52.856Z,99961.63
2022-08-19T21:59:15.345Z,99962.44
2022-08-19T22:02:21.931Z,99958.38
2022-08-19T22:05:29.289Z,99973.97
2022-08-19T22:08:35.774Z,99971.19
2022-08-19T22:11:43.953Z,99968.97
2022-08-19T22:14:51.213Z,99964.19
2022-08-19T22:17:59.347Z,99966.91
2022-08-19T22:21:11.379Z,99961.22
2022-08-19T22:24:17.843Z,99959.88
2022-08-19T22:27:23.749Z,99951.47
2022-08-19T22:30:33.273Z,99944.75
2022-08-19T22:33:40.406Z,99933.97
2022-08-19T22:36:46.410Z,99914.06
2022-08-19T22:39:53.188Z,99916.41
2022-08-19T22:43:04.344Z,99910.19
2022-08-19T22:46:16.802Z,99899.28
2022-08-19T22:49:39.086Z,99896.16
2022-08-19T22:52:52.023Z,99888.78
2022-08-19T22:56:15.533Z,99867.00
2022-08-19T22:59:22.165Z,99872.00
2022-08-19T23:02:35.265Z,99872.94
2022-08-19T23:05:41.883Z,99859.47
2022-08-19T23:08:48.063Z,99866.94
2022-08-19T23:11:54.773Z,99869.50
2022-08-19T23:15:14.362Z,99859.59
2022-08-19T23:18:21.087Z,99857.72
2022-08-19T23:21:27.579Z,99861.25
2022-08-19T23:24:33.598Z,99860.62
2022-08-19T23:28:00.496Z,99852.84
2022-08-19T23:31:08.325Z,99850.47
2022-08-19T23:34:14.173Z,99840.50
2022-08-19T23:37:20.403Z,99842.16
2022-08-19T23:40:28.554Z,99840.59
2022-08-19T23:43:35.265Z,99852.06
2022-08-19T23:46:54.409Z,99853.34
2022-08-19T23:50:10.212Z,99859.44
2022-08-19T23:53:16.758Z,99872.03
2022-08-19T23:56:23.277Z,99892.88
2022-08-19T23:59:29.577Z,99906.22
